Time;durP1;ratioP1;P1;durP2;ratioP2;P2;SDS_P1;SDS_P2;PMS_P1;PMS_P2;Temp;Humidity;BMP_temperature;BMP_pressure;BME280_temperature;BME280_humidity;BME280_pressure;Samples;Min_cycle;Max_cycle;Signal;HPM_P1;HPM_P2
2023/10/04 00:02:09;;;;;;;9.80;1.88;;;;;;;;;;5061508;28;20438;-65
2023/10/04 00:04:35;;;;;;;8.85;1.88;;;;;;;;;;5087514;28;20497;-65
2023/10/04 00:07:03;;;;;;;9.85;2.22;;;;;;;;;;5090895;28;20055;-66
2023/10/04 00:09:28;;;;;;;6.40;1.70;;;;;;;;;;5087814;28;20024;-66
2023/10/04 00:11:54;;;;;;;9.68;2.10;;;;;;;;;;5082468;28;20027;-65
2023/10/04 00:14:21;;;;;;;7.55;2.30;;;;;;;;;;5055201;28;20024;-65
2023/10/04 00:16:46;;;;;;;7.90;2.15;;;;;;;;;;5075878;28;20498;-66
2023/10/04 00:19:13;;;;;;;6.88;1.77;;;;;;;;;;5091852;28;20024;-66
2023/10/04 00:21:38;;;;;;;6.90;2.38;;;;;;;;;;5091192;28;20049;-66
2023/10/04 00:24:04;;;;;;;8.05;2.08;;;;;;;;;;5084302;28;20028;-65
2023/10/04 00:26:30;;;;;;;12.60;2.17;;;;;;;;;;5090849;28;20066;-65
2023/10/04 00:28:55;;;;;;;8.02;2.20;;;;;;;;;;5088766;28;20036;-65
2023/10/04 00:31:21;;;;;;;7.20;1.92;;;;;;;;;;5091359;28;20031;-66
2023/10/04 00:33:49;;;;;;;7.32;1.83;;;;;;;;;;5057946;28;21165;-65
2023/10/04 00:36:16;;;;;;;7.32;2.15;;;;;;;;;;5047616;28;20016;-65
2023/10/04 00:38:41;;;;;;;7.50;2.10;;;;;;;;;;5049964;28;20134;-65
2023/10/04 00:41:07;;;;;;;8.95;2.25;;;;;;;;;;5048549;28;20232;-65
2023/10/04 00:43:36;;;;;;;8.15;2.10;;;;;;;;;;5038863;28;20027;-65
2023/10/04 00:46:02;;;;;;;6.13;2.08;;;;;;;;;;5057659;28;20024;-65
2023/10/04 00:48:31;;;;;;;7.53;1.90;;;;;;;;;;5047107;28;20965;-65
2023/10/04 00:50:59;;;;;;;10.60;2.33;;;;;;;;;;5057635;28;20032;-65
2023/10/04 00:53:26;;;;;;;8.88;2.17;;;;;;;;;;5049715;28;20029;-66
2023/10/04 00:55:55;;;;;;;10.00;2.20;;;;;;;;;;5047392;28;20938;-66
2023/10/04 00:58:20;;;;;;;11.50;2.53;;;;;;;;;;5064608;28;20042;-65
2023/10/04 01:00:47;;;;;;;6.70;2.15;;;;;;;;;;5080890;28;20033;-65
2023/10/04 01:03:14;;;;;;;6.47;2.08;;;;;;;;;;5073254;28;20039;-65
2023/10/04 01:05:46;;;;;;;8.15;2.13;;;;;;;;;;5073776;28;20072;-66
2023/10/04 01:08:13;;;;;;;6.35;2.00;;;;;;;;;;5073538;28;20451;-65
2023/10/04 01:10:38;;;;;;;8.27;2.63;;;;;;;;;;5080575;28;20032;-65
2023/10/04 01:13:09;;;;;;;7.80;2.08;;;;;;;;;;5093106;28;20024;-66
2023/10/04 01:15:39;;;;;;;6.82;2.00;;;;;;;;;;5072659;28;20029;-66
2023/10/04 01:18:04;;;;;;;7.57;1.73;;;;;;;;;;5085387;28;20483;-66
2023/10/04 01:20:33;;;;;;;8.55;2.20;;;;;;;;;;5086196;28;20067;-66
2023/10/04 01:23:02;;;;;;;10.70;2.17;;;;;;;;;;5072929;28;20047;-66
2023/10/04 01:25:31;;;;;;;12.25;2.35;;;;;;;;;;5073158;28;20041;-66
2023/10/04 01:27:56;;;;;;;9.43;1.92;;;;;;;;;;5073144;28;20017;-66
2023/10/04 01:30:21;;;;;;;10.85;2.00;;;;;;;;;;5072775;28;20032;-66
2023/10/04 01:32:53;;;;;;;9.68;2.45;;;;;;;;;;5073133;28;20029;-67
2023/10/04 01:35:23;;;;;;;6.05;2.47;;;;;;;;;;5074392;28;20138;-65
2023/10/04 01:37:48;;;;;;;8.88;2.28;;;;;;;;;;5074513;28;20111;-65
2023/10/04 01:40:13;;;;;;;7.77;2.57;;;;;;;;;;5078847;28;20808;-66
2023/10/04 01:42:42;;;;;;;9.77;2.33;;;;;;;;;;5089489;28;20270;-66
2023/10/04 01:45:15;;;;;;;10.82;2.35;;;;;;;;;;5081740;28;20050;-66
2023/10/04 01:47:41;;;;;;;6.85;2.38;;;;;;;;;;5074577;28;20035;-65
2023/10/04 01:50:08;;;;;;;7.25;2.08;;;;;;;;;;5084834;28;20017;-65
2023/10/04 01:52:35;;;;;;;6.00;2.03;;;;;;;;;;5084586;28;20502;-65
2023/10/04 01:55:01;;;;;;;7.82;2.20;;;;;;;;;;5090248;28;20054;-65
2023/10/04 01:57:27;;;;;;;6.55;2.25;;;;;;;;;;5088617;28;20374;-65
2023/10/04 01:59:54;;;;;;;5.85;2.25;;;;;;;;;;5090307;28;20095;-65
2023/10/04 02:02:19;;;;;;;10.45;2.08;;;;;;;;;;5077492;28;20054;-65
2023/10/04 02:04:46;;;;;;;6.20;2.20;;;;;;;;;;5083914;28;20025;-65
2023/10/04 02:07:12;;;;;;;10.50;2.42;;;;;;;;;;5085898;28;20278;-65
2023/10/04 02:09:38;;;;;;;5.85;1.90;;;;;;;;;;5090892;28;20073;-65
2023/10/04 02:12:04;;;;;;;9.23;2.05;;;;;;;;;;5092125;28;20039;-65
2023/10/04 02:14:33;;;;;;;6.90;1.88;;;;;;;;;;5080078;28;20033;-65
2023/10/04 02:16:59;;;;;;;7.20;1.67;;;;;;;;;;5068736;28;20483;-65
2023/10/04 02:19:25;;;;;;;6.75;1.80;;;;;;;;;;5040854;28;20027;-64
2023/10/04 02:21:50;;;;;;;7.20;1.90;;;;;;;;;;5033322;28;20024;-64
2023/10/04 02:24:16;;;;;;;7.43;2.00;;;;;;;;;;5044683;28;20159;-65
2023/10/04 02:26:41;;;;;;;7.80;1.73;;;;;;;;;;5040828;28;20298;-66
2023/10/04 02:29:09;;;;;;;5.97;2.22;;;;;;;;;;5074924;28;20016;-67
2023/10/04 02:31:36;;;;;;;6.35;1.80;;;;;;;;;;5073141;28;20047;-67
2023/10/04 02:34:04;;;;;;;10.27;2.00;;;;;;;;;;5074211;28;20509;-66
2023/10/04 02:36:30;;;;;;;5.50;2.00;;;;;;;;;;5046464;28;20020;-67
2023/10/04 02:38:55;;;;;;;4.82;2.00;;;;;;;;;;5047304;28;20090;-65
2023/10/04 02:41:20;;;;;;;6.43;2.58;;;;;;;;;;5047900;28;20070;-65
2023/10/04 02:43:46;;;;;;;6.68;1.67;;;;;;;;;;5042386;28;20027;-65
2023/10/04 02:46:11;;;;;;;7.80;2.72;;;;;;;;;;5045961;28;20043;-65
2023/10/04 02:48:36;;;;;;;10.77;2.60;;;;;;;;;;5046457;28;20120;-65
2023/10/04 02:51:04;;;;;;;7.10;2.07;;;;;;;;;;5046307;28;20955;-66
2023/10/04 02:53:29;;;;;;;5.88;2.38;;;;;;;;;;5046438;28;20274;-66
2023/10/04 02:55:56;;;;;;;10.90;2.30;;;;;;;;;;5088757;28;20020;-65
2023/10/04 02:58:22;;;;;;;8.35;2.42;;;;;;;;;;5076945;28;20365;-65
2023/10/04 03:00:49;;;;;;;6.53;2.05;;;;;;;;;;5083511;28;20130;-65
2023/10/04 03:03:21;;;;;;;9.38;2.53;;;;;;;;;;5089558;28;20036;-66
2023/10/04 03:05:47;;;;;;;6.63;2.25;;;;;;;;;;5082199;28;20039;-66
2023/10/04 03:08:12;;;;;;;9.90;2.15;;;;;;;;;;5086303;28;20394;-65
2023/10/04 03:10:38;;;;;;;11.18;2.30;;;;;;;;;;5091405;28;20458;-67
2023/10/04 03:13:11;;;;;;;6.13;2.00;;;;;;;;;;5091231;28;20024;-65
2023/10/04 03:15:39;;;;;;;9.80;2.83;;;;;;;;;;5078445;28;20455;-66
2023/10/04 03:18:13;;;;;;;7.57;2.10;;;;;;;;;;5075945;28;20256;-66
2023/10/04 03:20:42;;;;;;;6.68;1.98;;;;;;;;;;5072244;28;20074;-65
2023/10/04 03:23:07;;;;;;;11.45;3.00;;;;;;;;;;5072705;28;20142;-65
2023/10/04 03:25:34;;;;;;;6.13;1.67;;;;;;;;;;5053950;28;20111;-65
2023/10/04 03:27:59;;;;;;;5.38;1.80;;;;;;;;;;5071361;28;20062;-65
2023/10/04 03:30:24;;;;;;;8.55;2.03;;;;;;;;;;5083928;28;20020;-65
2023/10/04 03:32:52;;;;;;;5.87;2.03;;;;;;;;;;5083038;28;20024;-64
2023/10/04 03:35:20;;;;;;;6.70;1.95;;;;;;;;;;5082829;28;20329;-65
2023/10/04 03:38:05;;;;;;;8.88;2.05;;;;;;;;;;5083426;28;20531;-65
2023/10/04 03:40:37;;;;;;;6.28;2.45;;;;;;;;;;5077664;28;20055;-65
2023/10/04 03:43:05;;;;;;;9.38;2.17;;;;;;;;;;5088681;28;20035;-66
2023/10/04 03:45:30;;;;;;;9.32;2.17;;;;;;;;;;5095165;28;20355;-66
2023/10/04 03:47:57;;;;;;;9.73;2.27;;;;;;;;;;5089879;28;20103;-66
2023/10/04 03:50:24;;;;;;;11.15;2.58;;;;;;;;;;5093381;28;20760;-66
2023/10/04 03:52:51;;;;;;;6.80;2.13;;;;;;;;;;5078830;28;20024;-66
2023/10/04 03:55:17;;;;;;;8.20;1.88;;;;;;;;;;5072011;28;20387;-66
2023/10/04 03:57:42;;;;;;;6.07;2.00;;;;;;;;;;5058932;28;20859;-65
2023/10/04 04:00:11;;;;;;;6.20;2.70;;;;;;;;;;5036492;28;20020;-65
2023/10/04 04:02:36;;;;;;;17.38;2.75;;;;;;;;;;5044920;28;20105;-65
2023/10/04 04:05:05;;;;;;;10.25;2.17;;;;;;;;;;5087599;28;20032;-65
2023/10/04 04:07:30;;;;;;;14.18;2.20;;;;;;;;;;5085246;28;20435;-66
2023/10/04 04:09:55;;;;;;;7.93;2.03;;;;;;;;;;5078790;28;20116;-66
2023/10/04 04:12:21;;;;;;;8.87;2.30;;;;;;;;;;5085103;28;20651;-66
2023/10/04 04:14:48;;;;;;;10.75;2.22;;;;;;;;;;5079625;28;20294;-66
2023/10/04 04:17:13;;;;;;;8.43;2.75;;;;;;;;;;5093674;28;20032;-65
2023/10/04 04:19:39;;;;;;;7.47;1.98;;;;;;;;;;5078985;28;20035;-65
2023/10/04 04:22:04;;;;;;;5.75;1.60;;;;;;;;;;5082842;28;20028;-65
2023/10/04 04:24:30;;;;;;;8.07;2.13;;;;;;;;;;5079527;28;20028;-65
2023/10/04 04:26:58;;;;;;;8.88;2.10;;;;;;;;;;5067346;28;20047;-65
2023/10/04 04:29:23;;;;;;;6.72;2.22;;;;;;;;;;5045053;28;20044;-65
2023/10/04 04:31:52;;;;;;;6.95;2.33;;;;;;;;;;5047105;28;20908;-66
2023/10/04 04:34:17;;;;;;;12.18;2.83;;;;;;;;;;5042122;28;20824;-66
2023/10/04 04:36:42;;;;;;;6.10;1.83;;;;;;;;;;5045619;28;20021;-66
2023/10/04 04:39:18;;;;;;;8.35;1.75;;;;;;;;;;5040849;28;20874;-66
2023/10/04 04:41:43;;;;;;;6.05;1.80;;;;;;;;;;5044670;28;20438;-66
2023/10/04 04:44:09;;;;;;;5.75;2.10;;;;;;;;;;5028460;28;20028;-66
2023/10/04 04:46:35;;;;;;;9.43;2.10;;;;;;;;;;5043190;28;20041;-65
2023/10/04 04:49:00;;;;;;;5.45;1.80;;;;;;;;;;5091580;28;20778;-66
2023/10/04 04:51:26;;;;;;;9.80;2.33;;;;;;;;;;5088015;28;20016;-66
2023/10/04 04:53:51;;;;;;;10.30;2.13;;;;;;;;;;5066804;28;20277;-66
2023/10/04 04:56:18;;;;;;;6.65;1.90;;;;;;;;;;5078889;28;20028;-66
2023/10/04 04:58:47;;;;;;;9.90;2.38;;;;;;;;;;5041591;28;20934;-66
2023/10/04 05:01:12;;;;;;;6.72;1.90;;;;;;;;;;5038173;28;20448;-66
2023/10/04 05:03:46;;;;;;;8.32;2.50;;;;;;;;;;5038402;28;20024;-66
2023/10/04 05:06:18;;;;;;;;;;;;;;;;;;5050339;28;20036;-66
2023/10/04 05:08:44;;;;;;;5.88;2.20;;;;;;;;;;5049583;28;20160;-66
2023/10/04 05:11:09;;;;;;;8.80;2.27;;;;;;;;;;5046278;28;20907;-66
2023/10/04 05:13:36;;;;;;;7.28;2.58;;;;;;;;;;5051816;28;20641;-66
2023/10/04 05:16:02;;;;;;;10.30;2.47;;;;;;;;;;5092169;28;20032;-66
2023/10/04 05:18:27;;;;;;;7.57;2.58;;;;;;;;;;5092302;28;20027;-66
2023/10/04 05:20:53;;;;;;;7.17;2.57;;;;;;;;;;5091094;28;20142;-66
2023/10/04 05:23:21;;;;;;;11.52;2.92;;;;;;;;;;5092112;28;20293;-66
2023/10/04 05:25:46;;;;;;;8.95;2.63;;;;;;;;;;5090977;28;20035;-65
2023/10/04 05:28:12;;;;;;;8.35;2.45;;;;;;;;;;5079366;28;20096;-65
2023/10/04 05:30:38;;;;;;;7.88;2.35;;;;;;;;;;5072664;28;20024;-65
2023/10/04 05:33:03;;;;;;;8.35;2.20;;;;;;;;;;5084700;28;20066;-65
2023/10/04 05:35:29;;;;;;;10.18;2.63;;;;;;;;;;5083328;28;20040;-65
2023/10/04 05:37:54;;;;;;;7.70;2.08;;;;;;;;;;5082333;28;20027;-65
2023/10/04 05:40:25;;;;;;;10.50;2.72;;;;;;;;;;5079822;28;20413;-66
2023/10/04 05:42:50;;;;;;;9.50;2.75;;;;;;;;;;5051541;28;20838;-66
2023/10/04 05:45:16;;;;;;;7.32;2.53;;;;;;;;;;5045456;28;20032;-66
2023/10/04 05:47:41;;;;;;;10.65;2.85;;;;;;;;;;5044036;28;20898;-66
2023/10/04 05:50:10;;;;;;;14.45;2.97;;;;;;;;;;5068403;28;20071;-66
2023/10/04 05:52:37;;;;;;;8.60;2.15;;;;;;;;;;5076718;28;20027;-66
2023/10/04 05:55:03;;;;;;;8.27;2.22;;;;;;;;;;5075128;28;20540;-66
2023/10/04 05:57:28;;;;;;;8.85;2.60;;;;;;;;;;5075065;28;20119;-66
2023/10/04 05:59:54;;;;;;;8.48;2.42;;;;;;;;;;5074402;28;20025;-66
2023/10/04 06:02:19;;;;;;;10.45;2.50;;;;;;;;;;5088670;28;20463;-66
2023/10/04 06:04:47;;;;;;;6.32;1.90;;;;;;;;;;5075717;28;20029;-66
2023/10/04 06:07:12;;;;;;;6.78;2.58;;;;;;;;;;5081215;28;20024;-66
2023/10/04 06:09:42;;;;;;;7.38;2.25;;;;;;;;;;5057140;28;20031;-66
2023/10/04 06:12:07;;;;;;;10.45;2.42;;;;;;;;;;5044844;28;20067;-66
2023/10/04 06:14:32;;;;;;;9.80;2.85;;;;;;;;;;5038262;28;20083;-65
2023/10/04 06:16:59;;;;;;;8.80;1.97;;;;;;;;;;5040032;28;20127;-66
2023/10/04 06:19:28;;;;;;;7.13;2.42;;;;;;;;;;5048602;28;20335;-66
2023/10/04 06:21:53;;;;;;;5.57;1.83;;;;;;;;;;5049708;28;20931;-66
2023/10/04 06:24:18;;;;;;;12.00;2.35;;;;;;;;;;5037042;28;20025;-65
2023/10/04 06:26:44;;;;;;;6.55;2.03;;;;;;;;;;5037173;28;20153;-66
2023/10/04 06:29:09;;;;;;;9.13;2.53;;;;;;;;;;5046604;28;20024;-65
2023/10/04 06:31:34;;;;;;;9.23;2.72;;;;;;;;;;5040971;28;20771;-66
2023/10/04 06:34:01;;;;;;;6.38;2.30;;;;;;;;;;5049496;28;20027;-67
2023/10/04 06:36:26;;;;;;;8.30;2.30;;;;;;;;;;5040693;28;20031;-66
2023/10/04 06:38:52;;;;;;;6.88;2.30;;;;;;;;;;5047253;28;20096;-66
2023/10/04 06:41:23;;;;;;;9.05;2.17;;;;;;;;;;5047543;28;20020;-67
2023/10/04 06:43:49;;;;;;;10.40;2.40;;;;;;;;;;5049216;28;20023;-66
2023/10/04 06:46:14;;;;;;;7.53;2.25;;;;;;;;;;5042269;28;20134;-66
2023/10/04 06:48:39;;;;;;;9.57;2.17;;;;;;;;;;5051062;28;20035;-65
2023/10/04 06:51:05;;;;;;;8.43;2.50;;;;;;;;;;5048205;28;20277;-66
2023/10/04 06:53:30;;;;;;;6.10;2.42;;;;;;;;;;5050017;28;20274;-65
2023/10/04 06:55:57;;;;;;;8.38;2.33;;;;;;;;;;5047446;28;20055;-64
2023/10/04 06:58:22;;;;;;;7.00;2.65;;;;;;;;;;5056731;28;20016;-66
2023/10/04 07:00:47;;;;;;;8.20;2.30;;;;;;;;;;5075205;28;20523;-66
2023/10/04 07:03:14;;;;;;;10.73;2.42;;;;;;;;;;5079887;28;20489;-65
2023/10/04 07:05:40;;;;;;;7.07;1.85;;;;;;;;;;5076100;28;20150;-65
2023/10/04 07:08:06;;;;;;;12.15;3.25;;;;;;;;;;5046453;28;20024;-67
2023/10/04 07:10:32;;;;;;;6.32;2.40;;;;;;;;;;5051680;28;20021;-66
2023/10/04 07:12:58;;;;;;;11.13;2.25;;;;;;;;;;5051099;28;20300;-67
2023/10/04 07:15:24;;;;;;;9.88;2.38;;;;;;;;;;5057591;28;20926;-67
2023/10/04 07:17:50;;;;;;;10.93;2.88;;;;;;;;;;5061840;28;20390;-66
2023/10/04 07:20:16;;;;;;;11.93;2.10;;;;;;;;;;5052378;28;20127;-66
2023/10/04 07:22:42;;;;;;;7.60;2.38;;;;;;;;;;5047636;28;20017;-67
2023/10/04 07:25:08;;;;;;;8.98;2.47;;;;;;;;;;5078245;28;20038;-67
2023/10/04 07:27:33;;;;;;;11.40;2.55;;;;;;;;;;5076436;28;20834;-66
2023/10/04 07:29:59;;;;;;;6.35;2.65;;;;;;;;;;5055134;28;20038;-64
2023/10/04 07:32:25;;;;;;;7.90;2.08;;;;;;;;;;5051059;28;20030;-65
2023/10/04 07:34:50;;;;;;;6.32;2.53;;;;;;;;;;5047771;28;20053;-66
2023/10/04 07:37:15;;;;;;;9.63;2.05;;;;;;;;;;5041844;28;20090;-66
2023/10/04 07:39:40;;;;;;;7.97;2.42;;;;;;;;;;5037852;28;20030;-66
2023/10/04 07:42:06;;;;;;;9.37;2.23;;;;;;;;;;5041305;28;20028;-66
2023/10/04 07:44:31;;;;;;;10.13;2.72;;;;;;;;;;5068345;28;20263;-66
2023/10/04 07:47:00;;;;;;;9.90;2.28;;;;;;;;;;5070697;28;20567;-66
2023/10/04 07:49:25;;;;;;;9.60;2.15;;;;;;;;;;5075246;28;20020;-65
2023/10/04 07:51:50;;;;;;;6.75;2.08;;;;;;;;;;5050774;28;20847;-66
2023/10/04 07:54:18;;;;;;;7.13;2.13;;;;;;;;;;5035691;28;20024;-66
2023/10/04 07:56:44;;;;;;;10.85;2.42;;;;;;;;;;5036019;28;20012;-66
2023/10/04 07:59:10;;;;;;;7.40;2.40;;;;;;;;;;5048246;28;20055;-66
2023/10/04 08:01:35;;;;;;;11.52;2.95;;;;;;;;;;5049280;28;20026;-66
2023/10/04 08:04:00;;;;;;;7.40;2.75;;;;;;;;;;5049532;28;20070;-66
2023/10/04 08:06:26;;;;;;;7.50;2.00;;;;;;;;;;5049548;28;20024;-66
2023/10/04 08:08:51;;;;;;;5.80;2.73;;;;;;;;;;5047923;28;20289;-66
2023/10/04 08:11:16;;;;;;;10.97;2.90;;;;;;;;;;5043215;28;20267;-66
2023/10/04 08:13:41;;;;;;;9.55;3.15;;;;;;;;;;5038596;28;20386;-66
2023/10/04 08:16:06;;;;;;;10.03;2.20;;;;;;;;;;5049740;28;20116;-66
2023/10/04 08:18:32;;;;;;;6.83;2.50;;;;;;;;;;5091310;28;20312;-66
2023/10/04 08:21:03;;;;;;;7.75;2.08;;;;;;;;;;5091855;28;20332;-66
2023/10/04 08:23:29;;;;;;;9.55;2.20;;;;;;;;;;5090895;28;20085;-65
2023/10/04 08:25:55;;;;;;;8.38;2.70;;;;;;;;;;5089778;28;20347;-66
2023/10/04 08:28:20;;;;;;;7.97;2.35;;;;;;;;;;5085887;28;20031;-66
2023/10/04 08:30:46;;;;;;;10.10;2.85;;;;;;;;;;5089075;28;20032;-66
2023/10/04 08:33:13;;;;;;;6.82;2.08;;;;;;;;;;5084090;28;20031;-66
2023/10/04 08:35:39;;;;;;;12.93;2.27;;;;;;;;;;5064589;28;21109;-65
2023/10/04 08:38:05;;;;;;;7.10;1.92;;;;;;;;;;5050862;28;21395;-66
2023/10/04 08:40:31;;;;;;;8.85;2.53;;;;;;;;;;5046587;28;20034;-66
2023/10/04 08:42:57;;;;;;;7.40;2.45;;;;;;;;;;5046063;28;20087;-66
2023/10/04 08:45:27;;;;;;;11.05;2.30;;;;;;;;;;5058230;28;20036;-66
2023/10/04 08:48:02;;;;;;;11.60;2.58;;;;;;;;;;5048053;28;20040;-67
2023/10/04 08:50:30;;;;;;;11.25;3.40;;;;;;;;;;5046970;28;20024;-66
2023/10/04 08:53:00;;;;;;;10.65;2.88;;;;;;;;;;5044732;28;20029;-66
2023/10/04 08:55:26;;;;;;;10.32;2.58;;;;;;;;;;5041834;28;20931;-65
2023/10/04 08:57:53;;;;;;;9.98;2.42;;;;;;;;;;5049220;28;20027;-66
2023/10/04 09:00:23;;;;;;;7.15;2.63;;;;;;;;;;5048698;28;20031;-66
2023/10/04 09:02:50;;;;;;;9.35;2.97;;;;;;;;;;5046455;28;20024;-66
2023/10/04 09:05:17;;;;;;;9.45;2.30;;;;;;;;;;5050716;28;20909;-66
2023/10/04 09:07:45;;;;;;;7.97;2.13;;;;;;;;;;5049223;28;20131;-66
2023/10/04 09:10:15;;;;;;;14.85;2.60;;;;;;;;;;5048940;28;20066;-66
2023/10/04 09:12:41;;;;;;;10.43;2.60;;;;;;;;;;5045477;28;20031;-66
2023/10/04 09:15:07;;;;;;;10.05;2.50;;;;;;;;;;5048520;28;20039;-66
2023/10/04 09:17:47;;;;;;;10.27;2.35;;;;;;;;;;5045550;28;20020;-66
2023/10/04 09:20:13;;;;;;;9.35;2.60;;;;;;;;;;5046977;28;20020;-66
2023/10/04 09:22:38;;;;;;;11.02;3.20;;;;;;;;;;5049443;28;20586;-66
2023/10/04 09:25:04;;;;;;;6.78;2.45;;;;;;;;;;5047513;28;20020;-66
2023/10/04 09:27:30;;;;;;;9.52;2.72;;;;;;;;;;5042306;28;20731;-67
2023/10/04 09:29:57;;;;;;;10.27;2.47;;;;;;;;;;5043114;28;20024;-66
2023/10/04 09:32:38;;;;;;;7.45;2.85;;;;;;;;;;5042586;28;20112;-67
2023/10/04 09:35:05;;;;;;;8.77;2.72;;;;;;;;;;5048852;28;20034;-66
2023/10/04 09:37:30;;;;;;;7.43;2.53;;;;;;;;;;5050900;28;20020;-66
2023/10/04 09:40:05;;;;;;;9.15;2.83;;;;;;;;;;5049167;28;20028;-66
2023/10/04 09:42:43;;;;;;;7.78;3.15;;;;;;;;;;5042096;28;20066;-66
2023/10/04 09:45:08;;;;;;;12.70;3.15;;;;;;;;;;5040409;28;20082;-66
2023/10/04 09:47:37;;;;;;;10.65;3.03;;;;;;;;;;5038340;28;20086;-66
2023/10/04 09:50:08;;;;;;;12.70;2.95;;;;;;;;;;5049148;28;20028;-66
2023/10/04 09:52:33;;;;;;;9.00;2.70;;;;;;;;;;5042400;28;20615;-66
2023/10/04 09:54:58;;;;;;;7.88;2.33;;;;;;;;;;5045377;28;20039;-66
2023/10/04 09:57:25;;;;;;;7.03;2.47;;;;;;;;;;5051243;28;20902;-65
2023/10/04 09:59:58;;;;;;;5.90;2.30;;;;;;;;;;5082236;27;21048;-66
2023/10/04 10:02:25;;;;;;;10.55;2.90;;;;;;;;;;5075510;28;20028;-66
2023/10/04 10:04:51;;;;;;;7.05;2.55;;;;;;;;;;5076468;28;20021;-66
2023/10/04 10:07:18;;;;;;;9.45;3.20;;;;;;;;;;5072765;28;20023;-66
2023/10/04 10:10:20;;;;;;;8.50;2.60;;;;;;;;;;5075698;28;20008;-66
2023/10/04 10:12:47;;;;;;;10.18;2.72;;;;;;;;;;5018322;28;20836;-66
2023/10/04 10:15:13;;;;;;;7.00;2.63;;;;;;;;;;5072218;27;20074;-66
2023/10/04 10:17:40;;;;;;;8.45;3.03;;;;;;;;;;5075686;28;20027;-66
2023/10/04 10:20:09;;;;;;;10.77;3.05;;;;;;;;;;5079077;28;20028;-66
2023/10/04 10:22:35;;;;;;;15.38;3.15;;;;;;;;;;5115768;28;20050;-66
2023/10/04 10:25:02;;;;;;;8.73;3.63;;;;;;;;;;5119747;28;20059;-66
2023/10/04 10:27:31;;;;;;;8.93;3.13;;;;;;;;;;5120856;28;20080;-66
2023/10/04 10:30:03;;;;;;;10.10;3.05;;;;;;;;;;5109540;28;20535;-66
2023/10/04 10:32:28;;;;;;;8.82;3.20;;;;;;;;;;5121130;28;20032;-66
2023/10/04 10:35:04;;;;;;;10.18;3.42;;;;;;;;;;5115409;28;20019;-65
2023/10/04 10:37:35;;;;;;;9.18;2.97;;;;;;;;;;5114543;28;20053;-65
2023/10/04 10:40:07;;;;;;;10.35;3.22;;;;;;;;;;5117628;28;20390;-66
2023/10/04 10:42:52;;;;;;;10.48;3.50;;;;;;;;;;5118737;28;20098;-65
2023/10/04 10:45:26;;;;;;;8.68;3.22;;;;;;;;;;5125385;28;20019;-65
2023/10/04 10:47:53;;;;;;;13.48;3.85;;;;;;;;;;5117896;28;20080;-66
2023/10/04 10:50:34;;;;;;;10.02;3.22;;;;;;;;;;5128135;28;20431;-66
2023/10/04 10:53:03;;;;;;;9.38;3.05;;;;;;;;;;5126879;28;20023;-66
2023/10/04 10:55:28;;;;;;;6.43;2.90;;;;;;;;;;5127766;27;20408;-66
2023/10/04 10:57:54;;;;;;;6.72;3.47;;;;;;;;;;5126991;28;20023;-66
2023/10/04 11:00:23;;;;;;;7.50;2.45;;;;;;;;;;5127975;28;20020;-65
2023/10/04 11:02:53;;;;;;;8.73;3.20;;;;;;;;;;5127229;28;20082;-66
2023/10/04 11:05:19;;;;;;;10.80;3.50;;;;;;;;;;5127550;28;20446;-65
2023/10/04 11:07:46;;;;;;;9.88;3.58;;;;;;;;;;5127354;28;20087;-65
2023/10/04 11:10:12;;;;;;;7.40;2.83;;;;;;;;;;5108693;28;20493;-65
2023/10/04 11:12:42;;;;;;;9.40;2.70;;;;;;;;;;5075374;28;20051;-66
2023/10/04 11:15:07;;;;;;;7.45;3.47;;;;;;;;;;5066656;28;20030;-66
2023/10/04 11:17:35;;;;;;;12.15;3.30;;;;;;;;;;5067414;28;20027;-66
2023/10/04 11:20:03;;;;;;;8.52;3.17;;;;;;;;;;5060552;28;20928;-66
2023/10/04 11:22:28;;;;;;;8.25;2.95;;;;;;;;;;5064534;28;20028;-65
2023/10/04 11:24:55;;;;;;;9.10;3.30;;;;;;;;;;5063883;28;20999;-65
2023/10/04 11:27:23;;;;;;;7.22;3.22;;;;;;;;;;5066374;28;20028;-65
2023/10/04 11:29:49;;;;;;;7.40;3.42;;;;;;;;;;5063264;28;20135;-65
2023/10/04 11:32:15;;;;;;;12.27;3.42;;;;;;;;;;5066427;28;20026;-65
2023/10/04 11:34:42;;;;;;;9.90;3.35;;;;;;;;;;5067237;28;20019;-65
2023/10/04 11:37:08;;;;;;;8.15;2.97;;;;;;;;;;5059373;28;20038;-65
2023/10/04 11:39:33;;;;;;;10.13;3.42;;;;;;;;;;5065585;28;20055;-65
2023/10/04 11:42:00;;;;;;;9.93;3.97;;;;;;;;;;5066031;28;20935;-66
2023/10/04 11:44:25;;;;;;;8.05;3.70;;;;;;;;;;5063696;28;20031;-65
2023/10/04 11:47:00;;;;;;;12.85;2.97;;;;;;;;;;5058142;28;20024;-65
2023/10/04 11:49:28;;;;;;;11.82;3.70;;;;;;;;;;5066327;28;20028;-65
2023/10/04 11:51:55;;;;;;;9.02;4.22;;;;;;;;;;5062132;28;20109;-65
2023/10/04 11:54:20;;;;;;;8.07;3.17;;;;;;;;;;5065938;28;20043;-66
2023/10/04 11:56:46;;;;;;;8.27;3.63;;;;;;;;;;5064191;28;20038;-65
2023/10/04 11:59:13;;;;;;;8.13;3.47;;;;;;;;;;5068012;28;20063;-66
2023/10/04 12:01:44;;;;;;;9.52;3.95;;;;;;;;;;5065471;28;20034;-65
2023/10/04 12:04:10;;;;;;;8.95;3.42;;;;;;;;;;5043514;28;20028;-65
2023/10/04 12:06:36;;;;;;;13.25;3.85;;;;;;;;;;5057252;28;20157;-65
2023/10/04 12:09:05;;;;;;;9.05;3.20;;;;;;;;;;5059966;28;20055;-65
2023/10/04 12:11:35;;;;;;;7.38;3.42;;;;;;;;;;5060417;28;20374;-65
2023/10/04 12:14:00;;;;;;;8.38;3.22;;;;;;;;;;5055680;28;20027;-66
2023/10/04 12:16:26;;;;;;;9.30;3.50;;;;;;;;;;5068700;28;20115;-65
2023/10/04 12:18:51;;;;;;;7.88;3.10;;;;;;;;;;5062622;28;20833;-65
2023/10/04 12:21:17;;;;;;;9.20;3.65;;;;;;;;;;5055851;28;20020;-65
2023/10/04 12:23:43;;;;;;;10.38;3.47;;;;;;;;;;5072998;28;20142;-65
2023/10/04 12:26:08;;;;;;;7.50;3.40;;;;;;;;;;5065084;28;20023;-65
2023/10/04 12:28:35;;;;;;;6.80;3.23;;;;;;;;;;5066970;28;20276;-65
2023/10/04 12:31:07;;;;;;;8.38;3.28;;;;;;;;;;5057173;28;20908;-65
2023/10/04 12:33:35;;;;;;;6.18;2.83;;;;;;;;;;5052882;28;20032;-65
2023/10/04 12:36:00;;;;;;;9.65;3.58;;;;;;;;;;5095116;28;20553;-65
2023/10/04 12:38:25;;;;;;;8.13;2.60;;;;;;;;;;5088169;28;20122;-65
2023/10/04 12:40:51;;;;;;;9.63;3.10;;;;;;;;;;5080339;28;20867;-65
2023/10/04 12:43:16;;;;;;;7.88;2.70;;;;;;;;;;5064308;28;21267;-65
2023/10/04 12:45:42;;;;;;;10.20;2.80;;;;;;;;;;5058201;28;20028;-65
2023/10/04 12:48:07;;;;;;;9.15;3.10;;;;;;;;;;5066042;28;20277;-66
2023/10/04 12:50:35;;;;;;;6.63;2.95;;;;;;;;;;5088166;28;20474;-65
2023/10/04 12:53:00;;;;;;;9.27;3.05;;;;;;;;;;5109628;28;20024;-65
2023/10/04 12:55:26;;;;;;;8.07;2.72;;;;;;;;;;5107665;28;20027;-65
2023/10/04 12:57:51;;;;;;;10.23;2.75;;;;;;;;;;5108197;28;20085;-66
2023/10/04 13:00:24;;;;;;;7.00;2.50;;;;;;;;;;5106594;28;20023;-65
2023/10/04 13:02:55;;;;;;;10.13;2.85;;;;;;;;;;5100783;28;20038;-66
2023/10/04 13:05:20;;;;;;;10.23;2.92;;;;;;;;;;5099867;28;20026;-67
2023/10/04 13:07:47;;;;;;;10.40;3.67;;;;;;;;;;5101968;28;20395;-65
2023/10/04 13:10:13;;;;;;;7.03;2.75;;;;;;;;;;5107661;28;20302;-65
2023/10/04 13:12:38;;;;;;;10.50;3.40;;;;;;;;;;5107948;28;20058;-65
2023/10/04 13:15:08;;;;;;;11.73;2.67;;;;;;;;;;5096129;28;20083;-65
2023/10/04 13:17:33;;;;;;;12.07;3.17;;;;;;;;;;5100047;28;20415;-65
2023/10/04 13:19:59;;;;;;;9.48;3.15;;;;;;;;;;5091801;28;20134;-65
2023/10/04 13:22:25;;;;;;;8.27;3.15;;;;;;;;;;5096505;28;20040;-65
2023/10/04 13:24:51;;;;;;;8.65;3.03;;;;;;;;;;5094482;28;20115;-64
2023/10/04 13:27:16;;;;;;;7.95;2.72;;;;;;;;;;5106374;28;20102;-64
2023/10/04 13:29:41;;;;;;;6.30;3.03;;;;;;;;;;5104790;28;20023;-65
2023/10/04 13:32:07;;;;;;;5.47;2.30;;;;;;;;;;5102405;28;20767;-65
2023/10/04 13:34:32;;;;;;;8.25;2.53;;;;;;;;;;5103933;28;21028;-65
2023/10/04 13:36:57;;;;;;;9.82;2.83;;;;;;;;;;5100513;28;20062;-65
2023/10/04 13:39:23;;;;;;;7.93;2.53;;;;;;;;;;5096810;28;20035;-64
2023/10/04 13:41:49;;;;;;;5.10;1.85;;;;;;;;;;5092472;28;20051;-64
2023/10/04 13:44:16;;;;;;;7.60;2.40;;;;;;;;;;5107020;28;20498;-65
2023/10/04 13:46:41;;;;;;;10.70;2.20;;;;;;;;;;5105961;28;20016;-64
2023/10/04 13:49:07;;;;;;;6.90;2.47;;;;;;;;;;5104782;28;20551;-66
2023/10/04 13:51:32;;;;;;;6.90;2.60;;;;;;;;;;5110335;28;20269;-66
2023/10/04 13:53:59;;;;;;;6.83;2.80;;;;;;;;;;5102570;28;20092;-65
2023/10/04 13:56:24;;;;;;;7.22;2.00;;;;;;;;;;5066727;28;20440;-64
2023/10/04 13:58:49;;;;;;;5.15;2.22;;;;;;;;;;5060620;28;20042;-65
2023/10/04 14:01:14;;;;;;;7.57;2.13;;;;;;;;;;5098500;28;20031;-64
2023/10/04 14:03:40;;;;;;;4.93;2.00;;;;;;;;;;5102494;28;20034;-64
2023/10/04 14:06:12;;;;;;;6.47;1.67;;;;;;;;;;5107095;28;20282;-63
2023/10/04 14:08:38;;;;;;;6.60;2.30;;;;;;;;;;5105033;28;20039;-63
2023/10/04 14:11:04;;;;;;;5.72;2.45;;;;;;;;;;5098941;28;20031;-64
2023/10/04 14:13:29;;;;;;;4.95;2.42;;;;;;;;;;5093521;28;20028;-64
2023/10/04 14:15:56;;;;;;;6.85;2.28;;;;;;;;;;5080751;28;20413;-64
2023/10/04 14:18:22;;;;;;;5.38;1.95;;;;;;;;;;5092288;28;20028;-64
2023/10/04 14:20:48;;;;;;;5.72;1.83;;;;;;;;;;5100360;28;20031;-65
2023/10/04 14:23:13;;;;;;;8.23;2.47;;;;;;;;;;5092338;28;20012;-65
2023/10/04 14:25:38;;;;;;;5.80;1.85;;;;;;;;;;5099053;28;20422;-64
2023/10/04 14:28:04;;;;;;;8.50;1.85;;;;;;;;;;5100949;28;20024;-66
2023/10/04 14:30:29;;;;;;;8.95;2.50;;;;;;;;;;5105354;28;20144;-67
2023/10/04 14:32:56;;;;;;;4.68;1.75;;;;;;;;;;5102186;28;20023;-66
2023/10/04 14:35:23;;;;;;;6.65;2.20;;;;;;;;;;5098060;28;20032;-66
2023/10/04 14:37:49;;;;;;;5.18;2.00;;;;;;;;;;5093882;28;20024;-66
2023/10/04 14:40:17;;;;;;;5.72;2.10;;;;;;;;;;5090557;28;20043;-64